createdAt,value
2019-02-17T00:02:40.985Z,12.60
2019-02-17T00:05:37.468Z,11.90
2019-02-17T00:08:16.544Z,13.53
2019-02-17T00:10:58.074Z,13.60
2019-02-17T00:13:40.392Z,13.33
2019-02-17T00:16:41.316Z,14.50
2019-02-17T00:19:14.580Z,11.13
2019-02-17T00:21:53.385Z,12.23
2019-02-17T00:24:28.439Z,13.30
2019-02-17T00:27:00.257Z,14.33
2019-02-17T00:29:30.681Z,13.83
2019-02-17T00:32:05.429Z,16.20
2019-02-17T00:34:35.360Z,17.20
2019-02-17T00:37:06.473Z,13.87
2019-02-17T00:39:40.011Z,13.00
2019-02-17T00:42:11.639Z,12.90
2019-02-17T00:44:42.265Z,13.67
2019-02-17T00:47:14.308Z,13.83
2019-02-17T00:49:55.229Z,13.50
2019-02-17T00:52:29.992Z,13.97
2019-02-17T00:55:01.213Z,13.03
2019-02-17T00:57:31.966Z,14.63
2019-02-17T01:00:01.976Z,13.08
2019-02-17T01:02:42.102Z,14.20
2019-02-17T01:05:16.213Z,13.23
2019-02-17T01:07:53.045Z,12.60
2019-02-17T01:10:22.611Z,13.33
2019-02-17T01:12:54.406Z,15.00
2019-02-17T01:15:24.834Z,13.50
2019-02-17T01:17:59.670Z,14.60
2019-02-17T01:20:30.306Z,11.83
2019-02-17T01:23:01.061Z,13.47
2019-02-17T01:25:48.677Z,12.77
2019-02-17T01:28:23.407Z,13.50
2019-02-17T01:30:54.453Z,14.73
2019-02-17T01:33:24.523Z,13.90
2019-02-17T01:35:59.192Z,13.27
2019-02-17T01:38:32.975Z,14.37
2019-02-17T01:41:23.256Z,13.00
2019-02-17T01:43:55.616Z,13.63
2019-02-17T01:46:26.753Z,15.23
2019-02-17T01:48:57.184Z,15.13
2019-02-17T01:51:31.081Z,14.53
2019-02-17T01:54:07.491Z,13.70
2019-02-17T01:56:37.345Z,13.03
2019-02-17T01:59:07.514Z,12.03
2019-02-17T02:01:44.718Z,14.63
2019-02-17T02:04:21.103Z,14.10
2019-02-17T02:06:51.520Z,13.83
2019-02-17T02:09:21.850Z,15.33
2019-02-17T02:11:54.122Z,14.20
2019-02-17T02:14:27.250Z,12.50
2019-02-17T02:16:57.262Z,13.43
2019-02-17T02:19:34.563Z,13.50
2019-02-17T02:22:08.223Z,13.80
2019-02-17T02:24:38.063Z,12.93
2019-02-17T02:27:08.143Z,13.00
2019-02-17T02:29:41.021Z,13.77
2019-02-17T02:32:10.293Z,12.10
2019-02-17T02:34:43.275Z,13.90
2019-02-17T02:37:14.233Z,12.10
2019-02-17T02:39:48.217Z,12.83
2019-02-17T02:42:18.606Z,11.10
2019-02-17T02:44:48.841Z,11.53
2019-02-17T02:47:19.385Z,11.93
2019-02-17T02:49:57.406Z,11.53
2019-02-17T02:52:42.980Z,11.53
2019-02-17T02:55:14.404Z,11.40
2019-02-17T02:57:51.499Z,11.80
2019-02-17T03:00:44.923Z,11.60
2019-02-17T03:03:14.924Z,10.93
2019-02-17T03:05:58.003Z,11.00
2019-02-17T03:08:27.641Z,11.70
2019-02-17T03:11:01.217Z,11.77
2019-02-17T03:13:33.176Z,9.77
2019-02-17T03:16:10.642Z,11.63
2019-02-17T03:18:41.423Z,11.70
2019-02-17T03:21:12.216Z,11.13
2019-02-17T03:23:42.863Z,11.53
2019-02-17T03:26:15.879Z,10.80
2019-02-17T03:29:03.935Z,10.73
2019-02-17T03:31:38.054Z,11.50
2019-02-17T03:34:08.366Z,10.77
2019-02-17T03:36:38.578Z,10.33
2019-02-17T03:39:12.259Z,11.20
2019-02-17T03:41:43.235Z,9.90
2019-02-17T03:44:13.635Z,10.00
2019-02-17T03:46:45.713Z,10.83
2019-02-17T03:49:16.090Z,9.57
2019-02-17T03:51:49.811Z,10.30
2019-02-17T03:54:20.255Z,10.07
2019-02-17T03:56:52.314Z,11.23
2019-02-17T04:02:51.191Z,11.03
2019-02-17T04:05:21.661Z,10.80
2019-02-17T04:08:05.612Z,9.70
2019-02-17T04:10:39.255Z,10.70
2019-02-17T04:13:09.133Z,11.13
2019-02-17T04:15:46.592Z,11.17
2019-02-17T04:18:20.089Z,11.13
2019-02-17T04:20:50.436Z,11.33
2019-02-17T04:23:30.418Z,10.80
2019-02-17T04:25:54.843Z,11.37
2019-02-17T04:28:25.797Z,10.97
2019-02-17T04:31:02.333Z,10.87
2019-02-17T04:33:32.516Z,11.30
2019-02-17T04:36:11.555Z,11.13
2019-02-17T04:38:46.946Z,11.67
2019-02-17T04:41:17.426Z,12.63
2019-02-17T04:43:47.475Z,12.77
2019-02-17T04:46:19.966Z,13.20
2019-02-17T04:48:50.865Z,12.60
2019-02-17T04:51:21.208Z,13.60
2019-02-17T04:53:52.627Z,12.27
2019-02-17T04:56:22.939Z,10.63
2019-02-17T04:58:54.765Z,10.90
2019-02-17T05:01:25.089Z,10.83
2019-02-17T05:04:01.051Z,11.40
2019-02-17T05:06:31.288Z,10.47
2019-02-17T05:09:01.814Z,12.57
2019-02-17T05:11:38.807Z,12.40
2019-02-17T05:14:09.917Z,12.00
2019-02-17T05:16:40.515Z,12.23
2019-02-17T05:19:11.292Z,11.50
2019-02-17T05:21:56.500Z,12.00
2019-02-17T05:24:15.930Z,10.93
2019-02-17T05:26:59.678Z,11.60
2019-02-17T05:29:46.488Z,11.07
2019-02-17T05:32:16.765Z,11.70
2019-02-17T05:34:50.393Z,11.83
2019-02-17T05:37:20.667Z,12.27
2019-02-17T05:39:58.633Z,11.37
2019-02-17T05:42:40.414Z,11.73
2019-02-17T05:45:08.867Z,10.90
2019-02-17T05:47:45.319Z,10.97
2019-02-17T05:50:33.152Z,11.30
2019-02-17T05:55:52.385Z,11.10
2019-02-17T06:01:58.579Z,10.53
2019-02-17T06:08:20.132Z,12.03
2019-02-17T06:11:38.740Z,10.80
2019-02-17T06:11:39.835Z,11.17
2019-02-17T06:14:29.494Z,11.40
2019-02-17T06:17:32.107Z,11.23
2019-02-17T06:21:02.883Z,10.60
2019-02-17T06:24:27.772Z,11.77
2019-02-17T06:31:14.449Z,12.73
2019-02-17T06:37:21.121Z,10.77
2019-02-17T06:40:41.547Z,11.70
2019-02-17T06:43:47.949Z,12.90
2019-02-17T06:50:18.446Z,10.58
2019-02-17T07:30:24.511Z,18.70
2019-02-17T07:33:29.177Z,17.40
2019-02-17T07:42:50.088Z,14.97
2019-02-17T07:45:31.918Z,14.95
2019-02-17T07:52:23.750Z,16.27
2019-02-17T08:01:44.946Z,14.63
2019-02-17T08:04:53.080Z,17.53
2019-02-17T08:14:23.488Z,17.60
2019-02-17T08:16:54.477Z,16.37
2019-02-17T08:19:25.687Z,16.20
2019-02-17T08:21:56.067Z,16.43
2019-02-17T08:24:26.598Z,17.03
2019-02-17T08:27:23.035Z,16.70
2019-02-17T08:33:07.857Z,16.67
2019-02-17T08:35:40.448Z,16.00
2019-02-17T08:38:50.673Z,16.27
2019-02-17T08:42:27.207Z,14.20
2019-02-17T08:49:39.201Z,13.47
2019-02-17T08:57:38.183Z,12.77
2019-02-17T09:00:39.937Z,11.50
2019-02-17T09:03:47.613Z,11.87
2019-02-17T09:12:36.743Z,12.60
2019-02-17T09:15:12.862Z,11.10
2019-02-17T09:17:48.261Z,10.73
2019-02-17T09:20:52.103Z,10.93
2019-02-17T09:23:26.262Z,10.70
2019-02-17T09:25:57.470Z,10.47
2019-02-17T09:28:36.022Z,9.50
2019-02-17T09:31:14.742Z,8.97
2019-02-17T09:34:01.430Z,9.47
2019-02-17T09:36:27.194Z,9.83
2019-02-17T09:38:57.514Z,8.80
2019-02-17T09:41:35.066Z,9.47
2019-02-17T09:44:07.772Z,9.00
2019-02-17T09:46:49.511Z,9.87
2019-02-17T09:49:21.016Z,9.50
2019-02-17T09:52:47.008Z,9.63
2019-02-17T09:55:31.903Z,8.70
2019-02-17T10:00:45.326Z,8.80
2019-02-17T10:13:08.373Z,8.80
2019-02-17T10:16:59.224Z,8.80
2019-02-17T10:42:29.129Z,7.70
2019-02-17T10:45:45.157Z,7.40
2019-02-17T10:48:39.730Z,7.00
2019-02-17T10:51:45.899Z,7.67
2019-02-17T11:32:08.525Z,6.53
2019-02-17T11:42:21.699Z,5.40
2019-02-17T12:11:38.171Z,2.83
2019-02-17T12:14:14.484Z,3.67
2019-02-17T12:17:09.077Z,4.80
2019-02-17T12:19:41.369Z,3.80
2019-02-17T12:22:22.511Z,4.07
2019-02-17T12:25:14.097Z,4.60
2019-02-17T12:30:50.887Z,4.20
2019-02-17T12:33:38.187Z,4.30
2019-02-17T12:36:09.103Z,4.03
2019-02-17T12:38:55.950Z,4.53
2019-02-17T12:45:32.399Z,4.20
2019-02-17T12:51:46.444Z,4.00
2019-02-17T13:10:47.835Z,2.93
2019-02-17T13:17:53.082Z,2.20
2019-02-17T13:21:06.963Z,4.33
2019-02-17T13:23:38.980Z,3.17
2019-02-17T13:26:10.411Z,2.90
2019-02-17T13:28:39.918Z,3.03
2019-02-17T13:31:14.399Z,3.00
2019-02-17T13:33:49.655Z,2.77
2019-02-17T13:42:07.232Z,2.90
2019-02-17T13:48:02.715Z,4.03
2019-02-17T13:50:32.635Z,3.70
2019-02-17T13:53:11.463Z,3.60
2019-02-17T13:55:34.643Z,4.93
2019-02-17T13:58:08.982Z,4.40
2019-02-17T14:00:39.309Z,3.73
2019-02-17T14:03:09.167Z,3.53
2019-02-17T14:05:38.890Z,3.57
2019-02-17T14:08:08.498Z,3.53
2019-02-17T14:10:38.868Z,3.70
2019-02-17T14:13:09.387Z,4.10
2019-02-17T14:15:39.851Z,3.77
2019-02-17T14:18:13.017Z,3.50
2019-02-17T14:20:46.313Z,2.93
2019-02-17T14:23:21.743Z,3.67
2019-02-17T14:25:52.171Z,3.60
2019-02-17T14:28:22.884Z,3.13
2019-02-17T14:31:13.683Z,3.53
2019-02-17T14:33:58.111Z,3.20
2019-02-17T14:36:24.202Z,3.73
2019-02-17T14:38:56.118Z,3.40
2019-02-17T14:41:27.889Z,2.90
2019-02-17T14:43:59.105Z,3.90
2019-02-17T14:46:46.611Z,3.67
2019-02-17T14:49:43.001Z,3.60
2019-02-17T14:52:21.340Z,3.07
2019-02-17T14:58:13.636Z,2.80
2019-02-17T15:04:24.069Z,3.03
2019-02-17T15:08:31.123Z,2.40
2019-02-17T15:11:23.364Z,2.90
2019-02-17T15:23:58.757Z,2.43
2019-02-17T15:26:28.841Z,2.50
2019-02-17T16:04:05.428Z,2.23
2019-02-17T16:10:53.760Z,2.40
2019-02-17T16:13:30.264Z,2.10
2019-02-17T16:16:04.523Z,1.90
2019-02-17T16:18:58.292Z,1.83
2019-02-17T16:41:43.355Z,4.00
2019-02-17T16:49:00.373Z,5.80
2019-02-17T17:00:10.176Z,1.83
2019-02-17T17:05:55.846Z,3.00
2019-02-17T17:08:34.054Z,4.80
2019-02-17T17:11:04.471Z,5.27
2019-02-17T17:13:38.583Z,6.00
2019-02-17T17:16:10.011Z,8.30
2019-02-17T17:19:24.054Z,8.43
2019-02-17T17:32:52.838Z,7.93
2019-02-17T17:35:41.856Z,8.10
2019-02-17T17:38:32.682Z,11.50
2019-02-17T17:41:06.726Z,8.80
2019-02-17T17:43:58.772Z,7.53
2019-02-17T17:46:51.074Z,8.27
2019-02-17T17:50:13.825Z,7.87
2019-02-17T17:59:33.973Z,8.63
2019-02-17T18:02:05.840Z,9.37
2019-02-17T18:04:57.384Z,8.83
2019-02-17T18:07:40.729Z,8.10
2019-02-17T18:10:30.755Z,10.10
2019-02-17T18:13:14.649Z,9.77
2019-02-17T18:16:53.692Z,10.37
2019-02-17T18:20:10.246Z,9.60
2019-02-17T18:22:41.977Z,10.15
2019-02-17T18:25:12.774Z,11.00
2019-02-17T18:35:26.776Z,13.97
2019-02-17T18:38:32.518Z,13.47
2019-02-17T18:42:06.486Z,16.67
2019-02-17T18:52:07.550Z,14.10
2019-02-17T18:58:12.415Z,16.00
2019-02-17T19:18:10.512Z,17.43
2019-02-17T19:20:43.122Z,17.80
2019-02-17T19:24:00.554Z,19.53
2019-02-17T19:27:05.551Z,19.40
2019-02-17T19:29:49.894Z,22.50
2019-02-17T19:32:26.433Z,25.57
2019-02-17T19:35:09.064Z,21.47
2019-02-17T19:37:39.259Z,19.30
2019-02-17T19:40:20.608Z,18.60
2019-02-17T19:43:21.179Z,18.33
2019-02-17T19:46:09.375Z,15.40
2019-02-17T19:55:20.320Z,24.57
2019-02-17T19:58:22.188Z,22.67
2019-02-17T20:00:54.450Z,24.57
2019-02-17T20:03:53.230Z,22.47
2019-02-17T20:06:33.961Z,24.43
2019-02-17T20:09:21.175Z,19.70
2019-02-17T20:12:09.472Z,18.30
2019-02-17T20:14:59.382Z,20.30
2019-02-17T20:18:07.288Z,18.40
2019-02-17T20:20:41.311Z,18.27
2019-02-17T20:23:36.848Z,18.73
2019-02-17T20:27:23.586Z,18.60
2019-02-17T20:30:18.999Z,16.83
2019-02-17T20:42:36.765Z,13.63
2019-02-17T20:46:07.287Z,18.00
2019-02-17T20:49:16.312Z,17.50
2019-02-17T20:51:54.337Z,16.20
2019-02-17T20:54:48.528Z,16.80
2019-02-17T20:57:23.412Z,16.70
2019-02-17T21:00:01.792Z,17.73
2019-02-17T21:02:36.678Z,16.50
2019-02-17T21:09:03.395Z,14.67
2019-02-17T21:13:34.427Z,12.40
2019-02-17T21:15:26.822Z,14.30
2019-02-17T21:22:25.748Z,16.77
2019-02-17T21:25:20.608Z,15.77
2019-02-17T21:29:06.611Z,15.83
2019-02-17T21:32:05.395Z,16.10
2019-02-17T21:34:53.482Z,19.03
2019-02-17T21:37:42.911Z,16.90
2019-02-17T21:40:14.005Z,18.23
2019-02-17T21:42:47.292Z,17.70
2019-02-17T21:45:39.414Z,17.10
2019-02-17T21:48:10.351Z,16.63
2019-02-17T21:51:10.389Z,17.50
2019-02-17T21:53:47.496Z,16.30
2019-02-17T21:56:38.110Z,16.40
2019-02-17T21:59:10.476Z,16.83
2019-02-17T22:01:57.687Z,17.33
2019-02-17T22:04:29.115Z,19.90
2019-02-17T22:07:05.869Z,18.50
2019-02-17T22:09:45.656Z,17.30
2019-02-17T22:12:23.496Z,17.30
2019-02-17T22:15:06.225Z,17.73
2019-02-17T22:17:37.600Z,15.87
2019-02-17T22:20:12.585Z,18.30
2019-02-17T22:22:46.217Z,17.63
2019-02-17T22:25:23.167Z,16.37
2019-02-17T22:28:11.117Z,16.70
2019-02-17T22:31:13.323Z,16.60
2019-02-17T22:34:28.728Z,16.80
2019-02-17T22:37:02.345Z,16.57
2019-02-17T22:39:40.473Z,15.77
2019-02-17T22:42:47.566Z,17.47
2019-02-17T22:45:24.603Z,15.90
2019-02-17T22:47:58.334Z,15.73
2019-02-17T22:50:40.853Z,14.30
2019-02-17T22:53:16.587Z,16.00
2019-02-17T22:55:47.843Z,15.20
2019-02-17T22:59:05.032Z,15.30
2019-02-17T23:05:10.054Z,15.27
2019-02-17T23:07:41.009Z,15.40
2019-02-17T23:10:30.919Z,14.80
2019-02-17T23:13:00.431Z,15.07
2019-02-17T23:15:57.544Z,13.93
2019-02-17T23:18:29.334Z,14.00
2019-02-17T23:21:38.341Z,13.50
2019-02-17T23:24:32.901Z,13.90
2019-02-17T23:27:05.081Z,12.80
2019-02-17T23:29:42.022Z,13.10
2019-02-17T23:32:16.602Z,13.20
2019-02-17T23:34:51.961Z,13.43
2019-02-17T23:37:22.522Z,13.30
2019-02-17T23:39:53.790Z,13.53
2019-02-17T23:42:24.263Z,12.40
2019-02-17T23:44:54.738Z,12.07
2019-02-17T23:47:27.257Z,12.47
2019-02-17T23:50:01.099Z,11.07
2019-02-17T23:52:31.208Z,11.20
2019-02-17T23:55:08.674Z,11.93
2019-02-17T23:57:39.737Z,11.90
